Magnolia, OH (44643)

9:23 AM EST on November 22, 2014 (GMT -0500)
Tri-County Weather Station | Change Station
CLOSE
Current Station
Personal Weather Station
Location: Magnolia, OH
Elevation: 1106 ft
Nearby Weather Stations
Active Advisory: Freezing Rain Advisory Active Notice: Record Report

Elev 1106 ft 40.69 °N, 81.33 °W | Updated 11 hours ago

Rain
Rain
39 °F
Feels Like 32 °F
N
14
Wind Variable Wind from SSW
Gusts 21 mph

Today
High -- | Low -- °F
--% Chance of Precip.
Yesterday
High -- | Low -- °F
Precip. -- in
7:20 AM 5:02 PM
New Moon, 0% visible
Pressure 30.31 in
Visibility 2.5 miles
Clouds Mostly Cloudy 1200 ft
Overcast 1600 ft
Windchill 32 °F
Dew Point 30 °F
Humidity 70%
Rainfall 0.01 in
Snow Depth Not available.
UV 0 out of 12
Pollen .10 out of 12
Air Quality Not available.
Flu Activity Not available.
SPECI KPHD 221416Z AUTO 13005KT 2 1/2SM FZRA BKN012 OVC016 M01/M04 A3031 RMK AO2 P0001 I1001 T10111044

More Conditions Fewer Conditions

Pressure 30.31 in
Visibility 2.5 miles
Clouds Mostly Cloudy 1200 ft
Overcast 1600 ft
Windchill 32 °F
Dew Point 30 °F
Humidity 70%
Rainfall 0.01 in
Snow Depth Not available.
UV 0 out of 12
Pollen .10 out of 12
Air Quality Not available.
Flu Activity Not available.
SPECI KPHD 221416Z AUTO 13005KT 2 1/2SM FZRA BKN012 OVC016 M01/M04 A3031 RMK AO2 P0001 I1001 T10111044

More Conditions Fewer Conditions

10-Day Weather Forecast

Almanac

Astronomy

Nov. 22, 2014 Rise Set
Actual Time
Civil Twilight
Nautical Twilight
Astronomical Twilight
Moon
Length of Visible Light
Length of Day
Tomorrow will be .
, % of the Moon is Illuminated

Today's Extremes

State Highs State Lows

Community

WunderPhotos

Upload Photos

1,772,820 photos uploaded!

WunderBlogs® & News

Nearby

Air Quality

  Air Quality AQ Index Pollutant
Not available.

Snow Depth

Station Depth Elevation

Earthquake Activity

City Distance Mag. Time & Date
Minimum magnitude displayed is 2.5.

Coastal Water Temperatures

Place Temperature

Nearby Weather Stations